Time;durP1;ratioP1;P1;durP2;ratioP2;P2;SDS_P1;SDS_P2;PMS_P1;PMS_P2;Temp;Humidity;BMP_temperature;BMP_pressure;BME280_temperature;BME280_humidity;BME280_pressure;Samples;Min_cycle;Max_cycle;Signal;HPM_P1;HPM_P2
2022/07/13 00:02:17;;;;;;;5.13;3.90;;;19.70;99.90;;;;;;5133395;27;20043;-82
2022/07/13 00:04:43;;;;;;;4.10;3.25;;;19.70;99.90;;;;;;5135183;27;20039;-82
2022/07/13 00:07:09;;;;;;;8.15;4.22;;;19.70;99.90;;;;;;5143287;27;20118;-81
2022/07/13 00:09:35;;;;;;;5.30;3.85;;;19.70;99.90;;;;;;5135318;27;20126;-81
2022/07/13 00:12:00;;;;;;;5.82;3.85;;;19.70;99.90;;;;;;5146683;27;20035;-82
2022/07/13 00:14:26;;;;;;;5.00;3.70;;;19.70;99.90;;;;;;5154709;27;20051;-82
2022/07/13 00:16:52;;;;;;;4.25;3.33;;;19.80;99.90;;;;;;5153080;27;20073;-82
2022/07/13 00:19:18;;;;;;;6.85;4.00;;;19.80;99.90;;;;;;5156894;27;20065;-82
2022/07/13 00:21:44;;;;;;;5.18;3.08;;;19.80;99.90;;;;;;5156196;27;20485;-82
2022/07/13 00:24:09;;;;;;;5.13;3.75;;;19.80;99.90;;;;;;5136786;27;20042;-82
2022/07/13 00:26:41;;;;;;;4.88;3.22;;;19.70;99.90;;;;;;5122435;27;20098;-82
2022/07/13 00:29:07;;;;;;;5.18;3.70;;;19.80;99.90;;;;;;5135989;27;20039;-82
2022/07/13 00:31:32;;;;;;;5.30;3.70;;;19.70;99.90;;;;;;5130263;27;20057;-82
2022/07/13 00:33:58;;;;;;;4.50;4.10;;;19.70;99.90;;;;;;5152626;27;20038;-82
2022/07/13 00:36:24;;;;;;;8.25;4.30;;;19.70;99.90;;;;;;5117255;27;20131;-82
2022/07/13 00:38:50;;;;;;;4.93;4.40;;;19.80;99.90;;;;;;5135730;27;20389;-82
2022/07/13 00:41:16;;;;;;;6.38;4.07;;;19.70;99.90;;;;;;5134981;27;20078;-82
2022/07/13 00:43:42;;;;;;;4.13;3.70;;;19.70;99.90;;;;;;5136913;27;20144;-82
2022/07/13 00:46:09;;;;;;;6.70;3.80;;;19.80;99.90;;;;;;5149038;27;20050;-82
2022/07/13 00:48:36;;;;;;;5.57;4.55;;;19.80;99.90;;;;;;5150979;27;20557;-82
2022/07/13 00:51:02;;;;;;;6.50;4.65;;;19.80;99.90;;;;;;5154487;27;20047;-82
2022/07/13 00:53:28;;;;;;;8.35;4.45;;;19.80;99.90;;;;;;5155211;27;20119;-82
2022/07/13 00:55:53;;;;;;;6.47;4.45;;;19.80;99.90;;;;;;5153984;27;20038;-82
2022/07/13 00:58:19;;;;;;;10.02;4.70;;;19.80;99.90;;;;;;5134613;27;20039;-82
2022/07/13 01:00:45;;;;;;;5.32;4.30;;;19.80;99.90;;;;;;5155952;27;20046;-82
2022/07/13 01:03:11;;;;;;;6.90;5.18;;;19.80;99.90;;;;;;5152914;27;20062;-82
2022/07/13 01:05:37;;;;;;;6.30;5.47;;;19.80;99.90;;;;;;5129992;27;20039;-81
2022/07/13 01:08:04;;;;;;;6.50;5.63;;;19.80;99.90;;;;;;5134580;27;20080;-82
2022/07/13 01:10:30;;;;;;;9.35;5.82;;;19.80;99.90;;;;;;5154617;27;20039;-82
2022/07/13 01:12:56;;;;;;;7.90;5.20;;;19.80;99.90;;;;;;5136567;27;20062;-82
2022/07/13 01:15:22;;;;;;;5.40;4.90;;;19.80;99.90;;;;;;5149801;27;20049;-82
2022/07/13 01:17:49;;;;;;;7.57;5.20;;;19.80;99.90;;;;;;5150717;27;20062;-82
2022/07/13 01:20:15;;;;;;;5.68;5.07;;;19.80;99.90;;;;;;5152963;27;20486;-82
2022/07/13 01:22:51;;;;;;;7.68;5.68;;;19.80;99.90;;;;;;5154074;27;20042;-82
2022/07/13 01:25:18;;;;;;;8.43;5.22;;;19.80;99.90;;;;;;5146094;27;20567;-82
2022/07/13 01:27:47;;;;;;;8.90;5.78;;;19.80;99.90;;;;;;5152843;27;20035;-82
2022/07/13 01:30:13;;;;;;;6.55;5.95;;;19.80;99.90;;;;;;5155656;27;20049;-82
2022/07/13 01:32:43;;;;;;;5.93;5.40;;;19.80;99.90;;;;;;5135794;27;20374;-82
2022/07/13 01:35:09;;;;;;;13.65;6.53;;;19.80;99.90;;;;;;5134436;27;20053;-82
2022/07/13 01:37:35;;;;;;;8.60;6.30;;;19.80;99.90;;;;;;5135830;27;20035;-82
2022/07/13 01:40:00;;;;;;;6.50;5.70;;;19.80;99.90;;;;;;5144493;27;20121;-82
2022/07/13 01:42:26;;;;;;;7.55;5.78;;;19.80;99.90;;;;;;5152126;27;20035;-82
2022/07/13 01:44:53;;;;;;;8.50;5.30;;;19.80;99.90;;;;;;5153367;27;20386;-82
2022/07/13 01:47:18;;;;;;;7.70;5.97;;;19.80;99.90;;;;;;5132420;27;20054;-82
2022/07/13 01:49:44;;;;;;;9.25;7.43;;;19.80;99.90;;;;;;5124195;27;20031;-81
2022/07/13 01:52:10;;;;;;;8.20;6.63;;;19.80;99.90;;;;;;5123801;28;20398;-82
2022/07/13 01:54:36;;;;;;;6.93;6.18;;;19.80;99.90;;;;;;5150616;27;20106;-82
2022/07/13 01:57:01;;;;;;;10.32;6.20;;;19.80;99.90;;;;;;5152045;27;20054;-82
2022/07/13 01:59:27;;;;;;;6.88;6.15;;;19.80;99.90;;;;;;5156705;27;20050;-82
2022/07/13 02:01:53;;;;;;;11.05;6.78;;;19.80;99.90;;;;;;5156993;27;20099;-82
2022/07/13 02:04:19;;;;;;;7.20;6.50;;;19.80;99.90;;;;;;5159698;27;20107;-82
2022/07/13 02:06:44;;;;;;;6.88;6.28;;;19.80;99.90;;;;;;5139773;27;20043;-82
2022/07/13 02:09:10;;;;;;;15.55;7.40;;;19.80;99.90;;;;;;5158613;27;20548;-82
2022/07/13 02:11:36;;;;;;;10.18;6.15;;;19.80;99.90;;;;;;5144722;27;20039;-82
2022/07/13 02:14:02;;;;;;;7.00;6.18;;;19.80;99.90;;;;;;5138399;27;20047;-82
2022/07/13 02:16:27;;;;;;;6.85;6.00;;;19.80;99.90;;;;;;5142754;27;20482;-82
2022/07/13 02:18:53;;;;;;;7.40;6.53;;;19.80;99.90;;;;;;5140975;27;20529;-82
2022/07/13 02:21:19;;;;;;;8.10;6.22;;;19.80;99.90;;;;;;5139536;27;20118;-82
2022/07/13 02:23:44;;;;;;;7.57;6.65;;;19.80;99.90;;;;;;5139703;27;20038;-82
2022/07/13 02:26:10;;;;;;;8.07;6.45;;;19.80;99.90;;;;;;5139442;27;20058;-82
2022/07/13 02:28:36;;;;;;;7.30;6.50;;;19.80;99.90;;;;;;5140730;27;20049;-82
2022/07/13 02:31:01;;;;;;;12.60;7.20;;;19.80;99.90;;;;;;5138444;27;20505;-82
2022/07/13 02:33:27;;;;;;;10.88;6.60;;;19.80;99.90;;;;;;5157808;27;20075;-82
2022/07/13 02:35:53;;;;;;;6.93;6.22;;;19.80;99.90;;;;;;5158802;27;20482;-82
2022/07/13 02:38:19;;;;;;;7.78;6.22;;;19.70;99.90;;;;;;5138498;27;20043;-82
2022/07/13 02:40:45;;;;;;;12.20;6.68;;;19.70;99.90;;;;;;5157776;27;20545;-82
2022/07/13 02:43:11;;;;;;;9.32;5.97;;;19.80;99.90;;;;;;5157400;27;20114;-82
2022/07/13 02:45:36;;;;;;;11.60;6.53;;;19.70;99.90;;;;;;5137422;27;20486;-82
2022/07/13 02:48:02;;;;;;;8.60;6.50;;;20.30;99.90;;;;;;5144985;27;20514;-83
2022/07/13 02:50:28;;;;;;;7.63;6.88;;;19.70;99.90;;;;;;5154128;27;20039;-82
2022/07/13 02:52:54;;;;;;;8.10;7.05;;;19.70;99.90;;;;;;5137421;27;20482;-82
2022/07/13 02:55:20;;;;;;;9.48;7.50;;;19.70;99.90;;;;;;5137659;27;20046;-82
2022/07/13 02:57:46;;;;;;;8.95;6.40;;;19.70;99.90;;;;;;5156790;27;20046;-82
2022/07/13 03:00:12;;;;;;;8.60;6.43;;;19.70;99.90;;;;;;5138801;27;20043;-82
2022/07/13 03:02:38;;;;;;;7.72;7.00;;;19.70;99.90;;;;;;5139334;27;20047;-82
2022/07/13 03:05:04;;;;;;;7.18;6.47;;;19.70;99.90;;;;;;5157964;27;20482;-82
2022/07/13 03:07:34;;;;;;;7.30;6.38;;;19.70;99.90;;;;;;5149744;27;20107;-82
2022/07/13 03:10:00;;;;;;;7.90;6.55;;;19.70;99.90;;;;;;5137308;27;20031;-82
2022/07/13 03:12:25;;;;;;;7.05;6.35;;;19.70;99.90;;;;;;5123366;27;20053;-82
2022/07/13 03:14:51;;;;;;;9.13;6.20;;;19.70;99.90;;;;;;5148120;27;20546;-82
2022/07/13 03:17:18;;;;;;;7.22;6.30;;;19.70;99.90;;;;;;5137150;27;20100;-82
2022/07/13 03:19:43;;;;;;;11.00;6.43;;;19.70;99.90;;;;;;5139797;27;20038;-82
2022/07/13 03:22:09;;;;;;;6.88;6.20;;;19.70;99.90;;;;;;5157931;27;20119;-82
2022/07/13 03:24:35;;;;;;;9.98;6.80;;;19.70;99.90;;;;;;5156784;27;20095;-82
2022/07/13 03:27:01;;;;;;;7.85;6.53;;;19.70;99.90;;;;;;5133012;27;20047;-82
2022/07/13 03:29:27;;;;;;;8.75;6.80;;;19.70;99.90;;;;;;5148476;27;20095;-82
2022/07/13 03:31:53;;;;;;;7.00;6.30;;;19.60;99.90;;;;;;5157924;27;20130;-82
2022/07/13 03:34:19;;;;;;;12.30;7.45;;;19.60;99.90;;;;;;5156439;27;20122;-83
2022/07/13 03:36:44;;;;;;;7.28;6.30;;;19.60;99.90;;;;;;5157807;27;20046;-82
2022/07/13 03:39:10;;;;;;;8.40;6.63;;;19.60;99.90;;;;;;5137357;27;20047;-82
2022/07/13 03:41:36;;;;;;;7.90;6.75;;;19.60;99.90;;;;;;5155504;27;20042;-82
2022/07/13 03:44:02;;;;;;;7.63;6.68;;;19.60;99.90;;;;;;5137723;27;20492;-82
2022/07/13 03:46:28;;;;;;;7.53;6.78;;;19.60;99.90;;;;;;5157493;27;20046;-82
2022/07/13 03:48:53;;;;;;;7.68;6.25;;;19.60;99.90;;;;;;5136742;27;20098;-82
2022/07/13 03:51:19;;;;;;;10.88;7.30;;;19.60;99.90;;;;;;5157504;27;20038;-82
2022/07/13 03:53:45;;;;;;;7.63;6.47;;;19.60;99.90;;;;;;5155480;27;20042;-82
2022/07/13 03:56:11;;;;;;;7.32;6.45;;;19.60;99.90;;;;;;5157451;27;20507;-83
2022/07/13 03:58:37;;;;;;;8.13;6.55;;;19.60;99.90;;;;;;5137711;27;20119;-82
2022/07/13 04:01:02;;;;;;;10.88;6.57;;;19.50;99.90;;;;;;5138048;27;20370;-83
2022/07/13 04:03:28;;;;;;;7.47;6.25;;;19.50;99.90;;;;;;5128958;27;20043;-83
2022/07/13 04:05:54;;;;;;;6.22;5.55;;;19.60;99.90;;;;;;5151200;27;20046;-82
2022/07/13 04:08:19;;;;;;;7.07;6.05;;;19.60;99.90;;;;;;5144427;27;20486;-82
2022/07/13 04:10:45;;;;;;;9.02;6.25;;;19.60;99.90;;;;;;5141273;27;20034;-83
2022/07/13 04:13:11;;;;;;;7.85;6.75;;;19.60;99.90;;;;;;5136514;27;20063;-83
2022/07/13 04:15:37;;;;;;;7.38;6.55;;;19.60;99.90;;;;;;5118889;27;20047;-83
2022/07/13 04:18:02;;;;;;;7.65;6.85;;;19.60;99.90;;;;;;5130149;27;20037;-82
2022/07/13 04:20:28;;;;;;;8.88;6.78;;;19.60;99.90;;;;;;5138666;27;20046;-82
2022/07/13 04:22:55;;;;;;;11.15;7.20;;;19.60;99.90;;;;;;5136375;27;20133;-82
2022/07/13 04:25:21;;;;;;;7.80;5.97;;;19.60;99.90;;;;;;5157078;27;20045;-82
2022/07/13 04:27:47;;;;;;;8.48;6.70;;;19.70;99.90;;;;;;5146788;27;20035;-82
2022/07/13 04:30:12;;;;;;;7.05;6.45;;;19.70;99.90;;;;;;5153327;27;20051;-82
2022/07/13 04:32:38;;;;;;;11.13;6.90;;;19.60;99.90;;;;;;5156732;27;20045;-82
2022/07/13 04:35:05;;;;;;;7.15;6.43;;;19.60;99.90;;;;;;5150880;27;20126;-82
2022/07/13 04:37:30;;;;;;;7.20;6.50;;;19.70;99.90;;;;;;5135154;27;20077;-82
2022/07/13 04:39:56;;;;;;;7.45;6.40;;;19.70;99.90;;;;;;5150516;27;20046;-82
2022/07/13 04:42:22;;;;;;;8.48;6.63;;;19.70;99.90;;;;;;5156399;27;20045;-82
2022/07/13 04:44:47;;;;;;;9.70;7.10;;;19.70;99.90;;;;;;5154623;27;20134;-82
2022/07/13 04:47:13;;;;;;;9.05;7.28;;;19.70;99.90;;;;;;5156848;27;20122;-82
2022/07/13 04:49:39;;;;;;;10.10;7.43;;;19.70;99.90;;;;;;5144328;27;20035;-82
2022/07/13 04:52:05;;;;;;;10.27;7.28;;;19.70;99.90;;;;;;5116690;27;20100;-82
2022/07/13 04:54:31;;;;;;;12.50;6.93;;;19.70;99.90;;;;;;5145235;27;20050;-82
2022/07/13 04:56:57;;;;;;;8.38;6.15;;;19.70;99.90;;;;;;5156791;27;20385;-82
2022/07/13 04:59:23;;;;;;;7.18;6.47;;;19.70;99.90;;;;;;5155301;27;20382;-82
2022/07/13 05:01:49;;;;;;;7.28;6.50;;;19.70;99.90;;;;;;5156423;27;20125;-82
2022/07/13 05:04:15;;;;;;;10.00;6.97;;;19.70;99.90;;;;;;5148987;27;20103;-82
2022/07/13 05:06:40;;;;;;;7.40;6.30;;;19.70;99.90;;;;;;5135202;27;20058;-82
2022/07/13 05:09:06;;;;;;;7.78;6.53;;;19.70;99.90;;;;;;5130996;27;20046;-82
2022/07/13 05:11:32;;;;;;;7.68;6.93;;;19.70;99.90;;;;;;5155680;27;20035;-82
2022/07/13 05:13:58;;;;;;;8.05;7.32;;;19.70;99.90;;;;;;5155732;27;20074;-82
2022/07/13 05:16:24;;;;;;;7.53;6.88;;;19.70;99.90;;;;;;5154291;27;20175;-82
2022/07/13 05:18:49;;;;;;;7.57;6.88;;;19.60;99.90;;;;;;5155764;27;20066;-82
2022/07/13 05:21:17;;;;;;;7.72;6.93;;;19.70;99.90;;;;;;5155496;27;20505;-82
2022/07/13 05:23:43;;;;;;;8.02;7.30;;;19.70;99.90;;;;;;5137829;27;20126;-82
2022/07/13 05:26:09;;;;;;;8.35;7.47;;;19.70;99.90;;;;;;5152691;27;20461;-82
2022/07/13 05:28:35;;;;;;;9.52;7.93;;;19.70;99.90;;;;;;5125662;27;20127;-82
2022/07/13 05:31:00;;;;;;;7.55;6.85;;;19.70;99.90;;;;;;5118359;27;20111;-82
2022/07/13 05:33:26;;;;;;;8.13;7.32;;;19.80;99.90;;;;;;5138864;27;20389;-82
2022/07/13 05:35:52;;;;;;;8.27;7.47;;;19.80;99.90;;;;;;5155017;27;20045;-82
2022/07/13 05:38:20;;;;;;;9.30;7.45;;;19.80;99.90;;;;;;5134025;27;20049;-82
2022/07/13 05:40:46;;;;;;;10.52;7.70;;;19.80;99.90;;;;;;5133877;28;20076;-82
2022/07/13 05:43:13;;;;;;;10.48;9.43;;;19.80;99.90;;;;;;5117423;28;20075;-82
2022/07/13 05:45:39;;;;;;;11.65;8.82;;;19.90;99.90;;;;;;5134653;28;20385;-82
2022/07/13 05:48:05;;;;;;;9.98;8.73;;;19.90;99.90;;;;;;5142867;27;20122;-82
2022/07/13 05:50:31;;;;;;;10.27;8.05;;;20.00;99.90;;;;;;5136540;27;20130;-82
2022/07/13 05:52:57;;;;;;;11.75;8.68;;;20.00;99.90;;;;;;5133195;27;20034;-82
2022/07/13 05:55:26;;;;;;;12.63;9.52;;;20.10;99.90;;;;;;5154139;27;20043;-83
2022/07/13 05:57:52;;;;;;;14.38;8.93;;;20.10;99.90;;;;;;5150402;27;20047;-83
2022/07/13 06:00:17;;;;;;;11.00;8.48;;;20.20;99.90;;;;;;5155982;27;20039;-83
2022/07/13 06:02:43;;;;;;;15.75;9.15;;;20.20;99.90;;;;;;5156430;27;20042;-82
2022/07/13 06:05:10;;;;;;;9.05;8.07;;;20.20;99.90;;;;;;5157506;27;20117;-83
2022/07/13 06:07:36;;;;;;;9.02;8.13;;;20.30;99.90;;;;;;5152200;27;20122;-82
2022/07/13 06:10:06;;;;;;;9.77;8.77;;;20.30;99.90;;;;;;5150429;27;20386;-82
2022/07/13 06:12:32;;;;;;;11.43;9.27;;;20.40;99.90;;;;;;5152445;27;20122;-83
2022/07/13 06:14:57;;;;;;;9.25;8.07;;;20.40;99.90;;;;;;5153322;27;20104;-83
2022/07/13 06:17:23;;;;;;;11.43;8.45;;;20.50;99.90;;;;;;5154244;27;20046;-82
2022/07/13 06:19:50;;;;;;;13.85;10.10;;;20.50;99.90;;;;;;5152707;27;20363;-83
2022/07/13 06:22:16;;;;;;;11.20;8.70;;;20.60;99.90;;;;;;5129391;27;20490;-83
2022/07/13 06:24:43;;;;;;;10.98;9.00;;;20.60;99.90;;;;;;5136122;27;20051;-83
2022/07/13 06:27:09;;;;;;;10.43;8.98;;;20.70;99.90;;;;;;5141318;27;20370;-83
2022/07/13 06:29:35;;;;;;;9.63;8.40;;;20.70;99.90;;;;;;5132832;28;20042;-83
2022/07/13 06:32:01;;;;;;;9.57;8.20;;;20.80;99.90;;;;;;5137748;27;20047;-83
2022/07/13 06:34:27;;;;;;;13.77;8.80;;;20.90;99.90;;;;;;5136225;27;20047;-83
2022/07/13 06:36:52;;;;;;;10.75;8.60;;;21.00;99.90;;;;;;5133789;27;20046;-83
2022/07/13 06:39:18;;;;;;;12.20;7.88;;;21.00;99.90;;;;;;5134307;27;20094;-83
2022/07/13 06:41:45;;;;;;;12.98;8.65;;;21.10;99.90;;;;;;5133426;27;20063;-83
2022/07/13 06:44:11;;;;;;;10.00;8.40;;;21.10;99.90;;;;;;5153667;27;20038;-83
2022/07/13 06:46:37;;;;;;;14.77;8.63;;;21.10;99.90;;;;;;5112791;27;20086;-83
2022/07/13 06:49:03;;;;;;;11.57;7.65;;;21.10;99.90;;;;;;5137691;27;20393;-83
2022/07/13 06:51:29;;;;;;;13.10;8.00;;;21.10;99.90;;;;;;5136769;27;20042;-83
2022/07/13 06:53:55;;;;;;;11.48;7.82;;;21.20;99.90;;;;;;5139265;27;20115;-83
2022/07/13 06:56:20;;;;;;;10.38;7.57;;;21.20;99.90;;;;;;5119357;27;20092;-83
2022/07/13 06:58:47;;;;;;;12.52;8.27;;;21.30;99.90;;;;;;5136357;27;20126;-83
2022/07/13 07:01:12;;;;;;;9.98;8.40;;;21.30;99.90;;;;;;5138606;27;20038;-83
2022/07/13 07:03:38;;;;;;;8.95;7.43;;;21.30;99.90;;;;;;5138936;27;20482;-83
2022/07/13 07:06:04;;;;;;;11.88;7.32;;;21.40;99.90;;;;;;5118630;27;20054;-83
2022/07/13 07:08:30;;;;;;;9.57;7.38;;;21.50;99.90;;;;;;5136400;27;20050;-83
2022/07/13 07:10:56;;;;;;;10.07;7.45;;;21.70;99.90;;;;;;5148989;27;20038;-83
2022/07/13 07:13:22;;;;;;;10.52;7.03;;;21.80;99.90;;;;;;5136758;27;20058;-83
2022/07/13 07:15:48;;;;;;;12.27;7.47;;;21.90;99.90;;;;;;5148737;27;20115;-83
2022/07/13 07:18:14;;;;;;;11.38;7.20;;;22.00;99.90;;;;;;5157132;27;20077;-83
2022/07/13 07:20:40;;;;;;;12.55;6.40;;;22.10;99.90;;;;;;5135855;27;20039;-83
2022/07/13 07:23:06;;;;;;;9.77;6.72;;;22.10;99.90;;;;;;5157153;27;20092;-82
2022/07/13 07:25:32;;;;;;;13.77;7.55;;;22.30;99.90;;;;;;5155651;27;20041;-83
2022/07/13 07:27:58;;;;;;;9.23;6.97;;;22.30;99.90;;;;;;5157496;27;20424;-83
2022/07/13 07:30:24;;;;;;;14.05;7.40;;;22.40;99.90;;;;;;5156163;27;20081;-83
2022/07/13 07:32:49;;;;;;;10.68;6.30;;;22.40;99.90;;;;;;5116694;27;20066;-83
2022/07/13 07:35:15;;;;;;;9.25;5.95;;;22.40;99.90;;;;;;5148012;27;20061;-83
2022/07/13 07:37:41;;;;;;;11.00;6.05;;;22.50;99.90;;;;;;5157263;27;20051;-83
2022/07/13 07:40:08;;;;;;;11.30;7.28;;;22.50;99.90;;;;;;5136662;27;20042;-83
2022/07/13 07:42:35;;;;;;;7.25;6.28;;;22.60;99.90;;;;;;5157057;27;20055;-83
2022/07/13 07:45:01;;;;;;;9.98;6.90;;;22.70;99.90;;;;;;5137547;27;20443;-83
2022/07/13 07:47:27;;;;;;;9.82;5.65;;;22.70;99.90;;;;;;5152878;27;20211;-83
2022/07/13 07:49:53;;;;;;;12.68;6.35;;;22.80;99.90;;;;;;5140027;27;20039;-83
2022/07/13 07:52:19;;;;;;;8.73;5.95;;;22.80;99.90;;;;;;5136132;27;20394;-82
2022/07/13 07:54:46;;;;;;;9.50;5.88;;;23.00;99.90;;;;;;5133137;27;20478;-83
2022/07/13 07:57:12;;;;;;;15.40;6.18;;;23.00;99.90;;;;;;5155044;27;20058;-83
2022/07/13 07:59:41;;;;;;;8.50;4.78;;;23.10;99.90;;;;;;5155815;27;20039;-84
2022/07/13 08:02:08;;;;;;;6.85;4.25;;;23.10;99.90;;;;;;5154796;27;20389;-83
2022/07/13 08:04:34;;;;;;;8.73;4.30;;;23.30;99.90;;;;;;5155358;27;20573;-83
2022/07/13 08:07:00;;;;;;;9.18;4.10;;;23.30;99.90;;;;;;5149207;27;20079;-83
2022/07/13 08:09:26;;;;;;;8.32;4.47;;;23.40;99.90;;;;;;5141918;27;20122;-84
2022/07/13 08:11:52;;;;;;;8.85;4.28;;;23.40;99.90;;;;;;5124758;27;20047;-83
2022/07/13 08:14:18;;;;;;;9.55;4.28;;;23.40;99.90;;;;;;5144890;27;20117;-84
2022/07/13 08:16:47;;;;;;;10.85;3.95;;;23.50;99.90;;;;;;5154354;27;20043;-84
2022/07/13 08:19:13;;;;;;;7.40;3.47;;;23.60;99.90;;;;;;5117637;27;20043;-84
2022/07/13 08:21:39;;;;;;;5.97;2.80;;;23.60;99.90;;;;;;5117094;27;20505;-84
2022/07/13 08:24:05;;;;;;;8.30;3.17;;;23.70;99.90;;;;;;5129584;27;20119;-83
2022/07/13 08:26:32;;;;;;;6.97;3.33;;;23.70;99.90;;;;;;5137932;27;20046;-82
2022/07/13 08:28:59;;;;;;;6.38;3.50;;;23.80;99.90;;;;;;5143175;27;20055;-83
2022/07/13 08:31:25;;;;;;;6.50;3.80;;;23.80;99.90;;;;;;5117235;27;20125;-82
2022/07/13 08:39:22;;;;;;;7.82;3.47;;;23.90;99.90;;;;;;5155613;27;20087;-83
2022/07/13 08:41:48;;;;;;;6.38;2.70;;;23.90;99.90;;;;;;5155229;27;20054;-83
2022/07/13 08:44:15;;;;;;;7.47;3.17;;;23.90;99.90;;;;;;5154508;27;20084;-83
2022/07/13 08:46:41;;;;;;;7.40;3.70;;;23.90;99.90;;;;;;5137640;27;20046;-83
2022/07/13 08:49:08;;;;;;;8.38;3.67;;;23.90;99.90;;;;;;5140412;27;20046;-84
2022/07/13 08:51:35;;;;;;;6.57;3.95;;;23.90;99.90;;;;;;5154479;27;20035;-83
2022/07/13 08:54:05;;;;;;;9.18;5.38;;;23.90;99.90;;;;;;5137303;27;20078;-82
2022/07/13 08:56:32;;;;;;;10.40;4.47;;;23.90;99.90;;;;;;5144388;27;20517;-84
2022/07/13 08:58:59;;;;;;;8.32;3.95;;;24.00;99.90;;;;;;5116572;27;20079;-83
2022/07/13 09:01:24;;;;;;;7.32;3.70;;;24.00;99.90;;;;;;5150000;27;20045;-83
2022/07/13 09:03:52;;;;;;;6.63;3.30;;;24.10;99.90;;;;;;5153238;27;20039;-84
2022/07/13 09:06:39;;;;;;;6.95;2.47;;;24.10;99.90;;;;;;5151814;27;20099;-84
2022/07/13 09:09:43;;;;;;;4.85;2.60;;;24.10;99.90;;;;;;5120627;27;20077;-82
2022/07/13 09:12:11;;;;;;;7.25;2.92;;;24.10;99.90;;;;;;5134348;27;20059;-83
2022/07/13 09:14:37;;;;;;;5.32;2.22;;;24.10;99.90;;;;;;5155296;27;20055;-84
2022/07/13 09:17:02;;;;;;;5.45;3.17;;;24.10;99.90;;;;;;5145974;27;20054;-83
2022/07/13 09:19:37;;;;;;;6.78;3.00;;;24.20;99.90;;;;;;5125583;27;20038;-79
2022/07/13 09:22:21;;;;;;;6.07;2.28;;;24.20;99.90;;;;;;5125165;27;20478;-82
2022/07/13 09:24:50;;;;;;;8.70;3.17;;;24.30;99.90;;;;;;5152639;27;20035;-82
2022/07/13 09:27:17;;;;;;;5.75;2.53;;;24.30;99.90;;;;;;5153072;27;20035;-82
2022/07/13 09:29:43;;;;;;;5.40;2.15;;;24.40;99.90;;;;;;5134902;27;20479;-81
2022/07/13 09:32:11;;;;;;;5.55;2.80;;;24.40;99.90;;;;;;5134363;27;20047;-80
2022/07/13 09:35:02;;;;;;;5.80;2.83;;;24.50;99.90;;;;;;5147689;27;20031;-82
2022/07/13 09:37:30;;;;;;;3.58;2.28;;;24.50;99.90;;;;;;5131364;27;20047;-81
2022/07/13 09:40:06;;;;;;;12.02;2.78;;;24.50;99.90;;;;;;5136709;27;20428;-79
2022/07/13 09:42:34;;;;;;;4.45;2.20;;;24.60;99.90;;;;;;5116031;28;20478;-80
2022/07/13 09:47:53;;;;;;;5.85;1.83;;;24.60;99.90;;;;;;5134484;27;20054;-82
2022/07/13 09:50:22;;;;;;;8.73;2.20;;;24.60;99.90;;;;;;5135201;27;20046;-82
2022/07/13 09:52:51;;;;;;;2.90;1.70;;;24.60;99.90;;;;;;5154352;27;20468;-81
2022/07/13 09:55:20;;;;;;;6.50;1.75;;;24.60;99.90;;;;;;5150576;27;20030;-82
2022/07/13 09:57:48;;;;;;;8.00;2.15;;;24.60;99.90;;;;;;5134318;28;20083;-81
2022/07/13 10:00:17;;;;;;;3.90;1.92;;;24.70;99.90;;;;;;5137313;27;20047;-80
2022/07/13 10:02:47;;;;;;;3.70;1.60;;;24.70;99.90;;;;;;5119538;27;20038;-81
2022/07/13 10:05:18;;;;;;;3.33;1.73;;;24.70;99.90;;;;;;5124268;28;20058;-81
2022/07/13 10:07:46;;;;;;;3.42;1.70;;;24.80;99.90;;;;;;5139134;27;20093;-80
2022/07/13 10:10:16;;;;;;;6.45;1.40;;;24.80;99.90;;;;;;5140303;27;20111;-82
2022/07/13 10:12:43;;;;;;;3.05;1.48;;;24.90;99.90;;;;;;5098779;28;20046;-81
2022/07/13 10:15:11;;;;;;;4.43;1.42;;;24.90;99.90;;;;;;5137192;27;20110;-81
2022/07/13 10:17:38;;;;;;;5.85;1.58;;;24.90;99.90;;;;;;5154970;27;20454;-82
2022/07/13 10:20:19;;;;;;;3.08;1.20;;;25.00;99.90;;;;;;5136378;27;20386;-81
2022/07/13 10:22:50;;;;;;;1.92;1.00;;;25.00;99.90;;;;;;5139685;27;20129;-81
2022/07/13 10:25:17;;;;;;;6.82;1.92;;;25.10;99.90;;;;;;5139226;27;20112;-81
2022/07/13 10:27:43;;;;;;;7.30;2.22;;;25.20;99.90;;;;;;5158307;27;20098;-81
2022/07/13 10:30:18;;;;;;;3.50;1.80;;;25.20;99.90;;;;;;5139069;27;20125;-82
2022/07/13 10:32:46;;;;;;;4.50;1.67;;;25.30;99.90;;;;;;5158884;27;20057;-82
2022/07/13 10:35:16;;;;;;;4.95;1.65;;;25.30;99.90;;;;;;5137183;27;20115;-80
2022/07/13 10:38:03;;;;;;;3.28;1.63;;;25.30;99.90;;;;;;5138972;27;20042;-81
2022/07/13 10:40:36;;;;;;;6.32;1.73;;;25.20;99.90;;;;;;5157347;27;20051;-82
2022/07/13 10:43:04;;;;;;;1.98;1.20;;;25.20;99.90;;;;;;5157542;27;20057;-80
2022/07/13 10:45:35;;;;;;;3.47;2.05;;;25.30;99.90;;;;;;5157363;27;20509;-81
2022/07/13 10:48:25;;;;;;;3.72;1.65;;;25.30;99.90;;;;;;5158504;27;20096;-82
2022/07/13 10:50:53;;;;;;;4.30;1.75;;;25.40;99.90;;;;;;5120666;27;20057;-82
2022/07/13 10:53:20;;;;;;;5.38;1.60;;;25.30;99.90;;;;;;5158437;27;20087;-82
2022/07/13 10:55:51;;;;;;;10.45;1.77;;;25.30;99.90;;;;;;5137608;27;20050;-81
2022/07/13 10:58:33;;;;;;;5.80;2.30;;;25.30;99.90;;;;;;5139597;27;20050;-81
2022/07/13 11:01:00;;;;;;;3.70;2.17;;;25.40;99.90;;;;;;5154376;27;20520;-82
2022/07/13 11:03:28;;;;;;;4.88;1.98;;;25.40;99.90;;;;;;5157501;27;20039;-82
2022/07/13 11:06:24;;;;;;;3.42;1.75;;;25.40;99.90;;;;;;5156077;27;20117;-79
2022/07/13 11:09:11;;;;;;;6.45;1.73;;;25.40;99.90;;;;;;5155035;27;20518;-80
2022/07/13 11:12:20;;;;;;;4.28;2.55;;;25.30;99.90;;;;;;5122128;27;20127;-82
2022/07/13 11:14:47;;;;;;;3.90;2.10;;;25.20;99.90;;;;;;5126918;27;20401;-81
2022/07/13 11:17:17;;;;;;;2.50;1.98;;;25.10;99.90;;;;;;5144442;27;20497;-80
2022/07/13 11:20:09;;;;;;;8.25;2.72;;;25.00;99.90;;;;;;5148543;27;20489;-81
2022/07/13 11:25:58;;;;;;;3.28;2.42;;;25.10;99.90;;;;;;5138014;27;20054;-79
2022/07/13 11:28:48;;;;;;;4.13;2.35;;;25.10;99.90;;;;;;5071920;28;20499;-80
2022/07/13 11:31:14;;;;;;;5.72;2.33;;;25.00;99.90;;;;;;5148125;27;20069;-81
2022/07/13 11:33:49;;;;;;;4.85;1.40;;;25.10;99.90;;;;;;5138143;27;20054;-81
2022/07/13 11:36:20;;;;;;;7.65;1.67;;;25.20;99.90;;;;;;5142686;27;20062;-78
2022/07/13 11:38:46;;;;;;;4.45;1.52;;;25.20;99.90;;;;;;5135888;27;20043;-81
2022/07/13 11:41:20;;;;;;;5.53;1.83;;;25.20;99.90;;;;;;5118689;27;20098;-80
2022/07/13 11:43:53;;;;;;;;;;;25.00;99.90;;;;;;5118748;27;20086;-80
2022/07/13 11:46:23;;;;;;;2.28;1.25;;;24.80;99.90;;;;;;5148228;27;20425;-81
2022/07/13 11:49:00;;;;;;;4.57;1.85;;;24.70;99.90;;;;;;5157293;27;20062;-80
2022/07/13 11:51:26;;;;;;;5.40;1.70;;;24.70;99.90;;;;;;5146534;27;20049;-81
2022/07/13 11:53:52;;;;;;;2.67;1.33;;;24.60;99.90;;;;;;5117366;27;20050;-78
2022/07/13 11:56:18;;;;;;;3.42;1.30;;;24.60;99.90;;;;;;5146981;27;20039;-80
2022/07/13 11:58:45;;;;;;;2.45;1.63;;;24.70;99.90;;;;;;5156762;27;20071;-81
2022/07/13 12:01:14;;;;;;;5.65;1.75;;;24.70;99.90;;;;;;5136536;27;20103;-82
2022/07/13 12:03:40;;;;;;;4.60;2.22;;;24.80;99.90;;;;;;5156837;27;20508;-81
2022/07/13 12:06:08;;;;;;;6.07;2.17;;;24.90;99.90;;;;;;5151488;27;20049;-82
2022/07/13 12:08:39;;;;;;;5.50;1.70;;;24.90;99.90;;;;;;5156888;27;20080;-81
2022/07/13 12:11:11;;;;;;;3.58;1.98;;;25.00;99.90;;;;;;5136056;27;20113;-82
2022/07/13 12:13:39;;;;;;;4.63;1.77;;;24.90;99.90;;;;;;5151435;27;20054;-81
2022/07/13 12:16:06;;;;;;;4.82;1.85;;;24.70;99.90;;;;;;5137040;27;20130;-83
2022/07/13 12:19:03;;;;;;;5.13;2.10;;;24.70;99.90;;;;;;5128385;27;20085;-80
2022/07/13 12:21:30;;;;;;;5.85;1.92;;;24.70;99.90;;;;;;5155849;27;20106;-79
2022/07/13 12:23:58;;;;;;;3.58;2.17;;;24.50;99.90;;;;;;5136464;27;20043;-81
2022/07/13 12:26:25;;;;;;;2.10;1.90;;;24.40;99.90;;;;;;5126448;27;20047;-80
2022/07/13 12:28:51;;;;;;;3.08;1.80;;;24.40;99.90;;;;;;5134613;27;20043;-80
2022/07/13 12:31:22;;;;;;;5.15;1.90;;;24.50;99.90;;;;;;5155599;27;20489;-81
2022/07/13 12:33:50;;;;;;;2.97;1.75;;;24.50;99.90;;;;;;5155876;27;20489;-82
2022/07/13 12:36:19;;;;;;;9.68;3.03;;;24.50;99.90;;;;;;5153643;27;20046;-82
2022/07/13 12:39:12;;;;;;;3.35;1.67;;;24.50;99.90;;;;;;5155028;27;20039;-80
2022/07/13 12:41:41;;;;;;;9.95;3.25;;;24.40;99.90;;;;;;5133178;27;20055;-82
2022/07/13 12:44:08;;;;;;;4.20;2.20;;;24.40;99.90;;;;;;5149135;27;20043;-80
2022/07/13 12:46:50;;;;;;;2.90;1.77;;;24.40;99.90;;;;;;5152737;27;20121;-80
2022/07/13 12:49:16;;;;;;;6.88;2.25;;;24.30;99.90;;;;;;5150009;27;20671;-80
2022/07/13 12:51:50;;;;;;;15.40;2.63;;;24.10;99.90;;;;;;5153828;27;20504;-81
2022/07/13 12:54:16;;;;;;;;;;;24.00;99.90;;;;;;5156156;27;20046;-81
2022/07/13 12:56:50;;;;;;;6.63;1.98;;;23.80;99.90;;;;;;5154223;27;19919;-77
2022/07/13 12:59:21;;;;;;;5.13;2.28;;;23.70;99.90;;;;;;5153596;27;20078;-83
2022/07/13 13:01:48;;;;;;;8.95;2.28;;;23.60;99.90;;;;;;5154806;27;20038;-83